sensor_id;sensor_type;location;lat;lon;timestamp;P1;durP1;ratioP1;P2;durP2;ratioP2
74670;SDS011;63196;39.564;2.628;2022-09-09T00:00:16;8.20;;;2.00;;
74670;SDS011;63196;39.564;2.628;2022-09-09T00:02:44;7.10;;;1.90;;
74670;SDS011;63196;39.564;2.628;2022-09-09T00:07:57;5.30;;;1.90;;
74670;SDS011;63196;39.564;2.628;2022-09-09T00:12:52;6.90;;;2.30;;
74670;SDS011;63196;39.564;2.628;2022-09-09T00:15:24;6.80;;;2.60;;
74670;SDS011;63196;39.564;2.628;2022-09-09T00:23:14;6.50;;;2.30;;
74670;SDS011;63196;39.564;2.628;2022-09-09T00:28:39;6.50;;;2.20;;
74670;SDS011;63196;39.564;2.628;2022-09-09T00:31:14;6.90;;;2.30;;
74670;SDS011;63196;39.564;2.628;2022-09-09T00:33:41;5.20;;;1.90;;
74670;SDS011;63196;39.564;2.628;2022-09-09T00:36:14;5.20;;;1.80;;
74670;SDS011;63196;39.564;2.628;2022-09-09T00:38:48;4.70;;;1.80;;
74670;SDS011;63196;39.564;2.628;2022-09-09T00:43:42;5.90;;;2.10;;
74670;SDS011;63196;39.564;2.628;2022-09-09T00:51:50;5.40;;;1.80;;
74670;SDS011;63196;39.564;2.628;2022-09-09T00:54:31;5.40;;;2.20;;
74670;SDS011;63196;39.564;2.628;2022-09-09T00:57:19;6.10;;;1.90;;
74670;SDS011;63196;39.564;2.628;2022-09-09T01:02:22;3.60;;;1.60;;
74670;SDS011;63196;39.564;2.628;2022-09-09T01:04:50;5.20;;;1.60;;
74670;SDS011;63196;39.564;2.628;2022-09-09T01:07:19;4.00;;;2.10;;
74670;SDS011;63196;39.564;2.628;2022-09-09T01:09:51;6.70;;;2.10;;
74670;SDS011;63196;39.564;2.628;2022-09-09T01:12:23;5.10;;;2.20;;
74670;SDS011;63196;39.564;2.628;2022-09-09T01:14:50;7.20;;;2.40;;
74670;SDS011;63196;39.564;2.628;2022-09-09T01:27:30;6.50;;;1.90;;
74670;SDS011;63196;39.564;2.628;2022-09-09T01:29:56;4.80;;;1.90;;
74670;SDS011;63196;39.564;2.628;2022-09-09T01:32:38;5.50;;;2.00;;
74670;SDS011;63196;39.564;2.628;2022-09-09T01:35:06;4.70;;;1.70;;
74670;SDS011;63196;39.564;2.628;2022-09-09T01:37:32;5.20;;;2.00;;
74670;SDS011;63196;39.564;2.628;2022-09-09T01:39:58;6.70;;;2.30;;
74670;SDS011;63196;39.564;2.628;2022-09-09T01:42:23;5.50;;;2.00;;
74670;SDS011;63196;39.564;2.628;2022-09-09T01:44:48;4.60;;;1.90;;
74670;SDS011;63196;39.564;2.628;2022-09-09T01:47:14;6.60;;;2.00;;
74670;SDS011;63196;39.564;2.628;2022-09-09T01:49:40;5.20;;;2.10;;
74670;SDS011;63196;39.564;2.628;2022-09-09T01:52:05;5.70;;;2.00;;
74670;SDS011;63196;39.564;2.628;2022-09-09T01:54:31;7.30;;;1.80;;
74670;SDS011;63196;39.564;2.628;2022-09-09T01:57:02;5.00;;;1.80;;
74670;SDS011;63196;39.564;2.628;2022-09-09T02:09:52;7.40;;;2.50;;
74670;SDS011;63196;39.564;2.628;2022-09-09T02:12:22;5.20;;;2.00;;
74670;SDS011;63196;39.564;2.628;2022-09-09T02:14:52;6.10;;;2.60;;
74670;SDS011;63196;39.564;2.628;2022-09-09T02:17:22;5.90;;;1.70;;
74670;SDS011;63196;39.564;2.628;2022-09-09T02:19:53;4.60;;;2.20;;
74670;SDS011;63196;39.564;2.628;2022-09-09T02:22:22;4.90;;;1.90;;
74670;SDS011;63196;39.564;2.628;2022-09-09T02:24:48;7.90;;;2.60;;
74670;SDS011;63196;39.564;2.628;2022-09-09T02:27:16;6.60;;;2.10;;
74670;SDS011;63196;39.564;2.628;2022-09-09T02:29:44;4.80;;;2.20;;
74670;SDS011;63196;39.564;2.628;2022-09-09T02:32:13;5.10;;;2.00;;
74670;SDS011;63196;39.564;2.628;2022-09-09T02:34:40;5.40;;;1.80;;
74670;SDS011;63196;39.564;2.628;2022-09-09T02:39:32;8.10;;;2.30;;
74670;SDS011;63196;39.564;2.628;2022-09-09T02:41:57;5.00;;;1.90;;
74670;SDS011;63196;39.564;2.628;2022-09-09T02:44:23;7.70;;;2.90;;
74670;SDS011;63196;39.564;2.628;2022-09-09T02:47:11;5.80;;;2.00;;
74670;SDS011;63196;39.564;2.628;2022-09-09T02:49:56;5.60;;;2.00;;
74670;SDS011;63196;39.564;2.628;2022-09-09T02:52:30;4.00;;;1.80;;
74670;SDS011;63196;39.564;2.628;2022-09-09T02:54:58;6.90;;;2.00;;
74670;SDS011;63196;39.564;2.628;2022-09-09T02:57:28;5.50;;;2.40;;
74670;SDS011;63196;39.564;2.628;2022-09-09T02:59:58;5.50;;;2.20;;
74670;SDS011;63196;39.564;2.628;2022-09-09T03:02:24;7.70;;;2.10;;
74670;SDS011;63196;39.564;2.628;2022-09-09T03:04:50;6.60;;;2.30;;
74670;SDS011;63196;39.564;2.628;2022-09-09T03:07:20;5.10;;;1.80;;
74670;SDS011;63196;39.564;2.628;2022-09-09T03:09:45;5.30;;;2.00;;
74670;SDS011;63196;39.564;2.628;2022-09-09T03:12:10;5.10;;;2.10;;
74670;SDS011;63196;39.564;2.628;2022-09-09T03:14:38;6.20;;;2.40;;
74670;SDS011;63196;39.564;2.628;2022-09-09T03:17:04;5.70;;;2.00;;
74670;SDS011;63196;39.564;2.628;2022-09-09T03:19:30;8.10;;;2.20;;
74670;SDS011;63196;39.564;2.628;2022-09-09T03:21:56;5.90;;;2.30;;
74670;SDS011;63196;39.564;2.628;2022-09-09T03:24:22;4.90;;;2.00;;
74670;SDS011;63196;39.564;2.628;2022-09-09T03:26:47;6.10;;;2.30;;
74670;SDS011;63196;39.564;2.628;2022-09-09T03:29:13;4.70;;;2.00;;
74670;SDS011;63196;39.564;2.628;2022-09-09T03:31:39;5.30;;;2.30;;
74670;SDS011;63196;39.564;2.628;2022-09-09T03:34:05;4.30;;;1.90;;
74670;SDS011;63196;39.564;2.628;2022-09-09T03:36:30;5.40;;;2.40;;
74670;SDS011;63196;39.564;2.628;2022-09-09T03:38:56;6.10;;;2.40;;
74670;SDS011;63196;39.564;2.628;2022-09-09T03:41:22;4.80;;;2.30;;
74670;SDS011;63196;39.564;2.628;2022-09-09T03:43:52;5.00;;;2.20;;
74670;SDS011;63196;39.564;2.628;2022-09-09T03:46:18;7.40;;;2.40;;
74670;SDS011;63196;39.564;2.628;2022-09-09T03:48:43;4.70;;;2.40;;
74670;SDS011;63196;39.564;2.628;2022-09-09T03:51:09;4.90;;;2.40;;
74670;SDS011;63196;39.564;2.628;2022-09-09T03:53:35;5.50;;;2.30;;
74670;SDS011;63196;39.564;2.628;2022-09-09T03:56:03;4.70;;;2.40;;
74670;SDS011;63196;39.564;2.628;2022-09-09T03:58:29;6.30;;;2.80;;
74670;SDS011;63196;39.564;2.628;2022-09-09T04:00:55;5.80;;;2.40;;
74670;SDS011;63196;39.564;2.628;2022-09-09T04:03:21;6.00;;;2.50;;
74670;SDS011;63196;39.564;2.628;2022-09-09T04:05:50;5.50;;;2.50;;
74670;SDS011;63196;39.564;2.628;2022-09-09T04:08:16;5.20;;;2.30;;
74670;SDS011;63196;39.564;2.628;2022-09-09T04:10:44;5.80;;;2.70;;
74670;SDS011;63196;39.564;2.628;2022-09-09T04:13:11;4.40;;;2.20;;
74670;SDS011;63196;39.564;2.628;2022-09-09T04:15:37;5.60;;;2.40;;
74670;SDS011;63196;39.564;2.628;2022-09-09T04:18:02;6.50;;;2.80;;
74670;SDS011;63196;39.564;2.628;2022-09-09T04:20:28;6.00;;;2.80;;
74670;SDS011;63196;39.564;2.628;2022-09-09T04:22:55;6.30;;;2.90;;
74670;SDS011;63196;39.564;2.628;2022-09-09T04:25:20;6.50;;;2.70;;
74670;SDS011;63196;39.564;2.628;2022-09-09T04:27:45;5.60;;;2.20;;
74670;SDS011;63196;39.564;2.628;2022-09-09T04:30:12;6.70;;;2.60;;
74670;SDS011;63196;39.564;2.628;2022-09-09T04:32:38;5.10;;;2.30;;
74670;SDS011;63196;39.564;2.628;2022-09-09T04:35:03;6.10;;;2.70;;
74670;SDS011;63196;39.564;2.628;2022-09-09T04:37:29;5.90;;;2.70;;
74670;SDS011;63196;39.564;2.628;2022-09-09T04:39:54;5.40;;;2.40;;
74670;SDS011;63196;39.564;2.628;2022-09-09T04:42:19;5.70;;;2.60;;
74670;SDS011;63196;39.564;2.628;2022-09-09T04:44:45;6.10;;;3.00;;
74670;SDS011;63196;39.564;2.628;2022-09-09T04:47:10;4.30;;;2.00;;
74670;SDS011;63196;39.564;2.628;2022-09-09T04:49:36;4.80;;;2.20;;
74670;SDS011;63196;39.564;2.628;2022-09-09T04:52:04;4.10;;;2.00;;
74670;SDS011;63196;39.564;2.628;2022-09-09T04:54:30;5.70;;;2.10;;
74670;SDS011;63196;39.564;2.628;2022-09-09T04:56:55;4.50;;;1.80;;
74670;SDS011;63196;39.564;2.628;2022-09-09T04:59:21;6.60;;;2.50;;
74670;SDS011;63196;39.564;2.628;2022-09-09T05:01:47;5.70;;;2.30;;
74670;SDS011;63196;39.564;2.628;2022-09-09T05:04:12;7.10;;;3.00;;
74670;SDS011;63196;39.564;2.628;2022-09-09T05:06:40;6.80;;;2.60;;
74670;SDS011;63196;39.564;2.628;2022-09-09T05:09:05;6.00;;;2.40;;
74670;SDS011;63196;39.564;2.628;2022-09-09T05:11:31;5.80;;;2.50;;
74670;SDS011;63196;39.564;2.628;2022-09-09T05:13:57;5.70;;;2.40;;
74670;SDS011;63196;39.564;2.628;2022-09-09T05:16:22;5.40;;;2.50;;
74670;SDS011;63196;39.564;2.628;2022-09-09T05:18:48;5.70;;;2.10;;
74670;SDS011;63196;39.564;2.628;2022-09-09T05:21:16;7.10;;;2.50;;
74670;SDS011;63196;39.564;2.628;2022-09-09T05:23:42;5.50;;;2.70;;
74670;SDS011;63196;39.564;2.628;2022-09-09T05:26:09;7.00;;;3.10;;
74670;SDS011;63196;39.564;2.628;2022-09-09T05:28:36;7.60;;;2.40;;
74670;SDS011;63196;39.564;2.628;2022-09-09T05:31:03;6.10;;;2.50;;
74670;SDS011;63196;39.564;2.628;2022-09-09T05:33:30;6.60;;;2.50;;
74670;SDS011;63196;39.564;2.628;2022-09-09T05:35:56;8.60;;;2.70;;
74670;SDS011;63196;39.564;2.628;2022-09-09T05:38:22;4.90;;;2.10;;
74670;SDS011;63196;39.564;2.628;2022-09-09T05:40:50;7.90;;;2.70;;
74670;SDS011;63196;39.564;2.628;2022-09-09T05:43:16;6.80;;;2.90;;
74670;SDS011;63196;39.564;2.628;2022-09-09T05:45:41;5.70;;;2.50;;
74670;SDS011;63196;39.564;2.628;2022-09-09T05:48:07;6.00;;;2.80;;
74670;SDS011;63196;39.564;2.628;2022-09-09T05:50:33;7.50;;;2.70;;
74670;SDS011;63196;39.564;2.628;2022-09-09T05:52:58;5.80;;;2.50;;
74670;SDS011;63196;39.564;2.628;2022-09-09T05:55:24;6.20;;;2.50;;
74670;SDS011;63196;39.564;2.628;2022-09-09T05:57:50;8.80;;;2.90;;
74670;SDS011;63196;39.564;2.628;2022-09-09T06:00:17;6.10;;;2.30;;
74670;SDS011;63196;39.564;2.628;2022-09-09T06:02:43;6.60;;;2.70;;
74670;SDS011;63196;39.564;2.628;2022-09-09T06:05:08;6.50;;;2.90;;
74670;SDS011;63196;39.564;2.628;2022-09-09T06:07:35;6.40;;;3.30;;
74670;SDS011;63196;39.564;2.628;2022-09-09T06:10:01;8.50;;;3.00;;
74670;SDS011;63196;39.564;2.628;2022-09-09T06:12:26;9.30;;;2.90;;
74670;SDS011;63196;39.564;2.628;2022-09-09T06:14:51;9.30;;;3.10;;
74670;SDS011;63196;39.564;2.628;2022-09-09T06:17:17;7.90;;;2.70;;
74670;SDS011;63196;39.564;2.628;2022-09-09T06:19:42;8.80;;;2.90;;
74670;SDS011;63196;39.564;2.628;2022-09-09T06:22:08;8.70;;;3.30;;
74670;SDS011;63196;39.564;2.628;2022-09-09T06:24:37;7.30;;;3.10;;
74670;SDS011;63196;39.564;2.628;2022-09-09T06:27:02;7.50;;;3.60;;
74670;SDS011;63196;39.564;2.628;2022-09-09T06:29:28;6.20;;;3.00;;
74670;SDS011;63196;39.564;2.628;2022-09-09T06:31:53;7.60;;;3.20;;
74670;SDS011;63196;39.564;2.628;2022-09-09T06:34:19;7.30;;;3.70;;
74670;SDS011;63196;39.564;2.628;2022-09-09T06:36:44;7.40;;;3.40;;
74670;SDS011;63196;39.564;2.628;2022-09-09T06:39:11;7.30;;;3.10;;
74670;SDS011;63196;39.564;2.628;2022-09-09T06:41:36;6.10;;;3.20;;
74670;SDS011;63196;39.564;2.628;2022-09-09T06:44:03;8.80;;;3.50;;
74670;SDS011;63196;39.564;2.628;2022-09-09T06:46:29;9.50;;;3.40;;
74670;SDS011;63196;39.564;2.628;2022-09-09T06:48:56;6.40;;;3.30;;
74670;SDS011;63196;39.564;2.628;2022-09-09T06:51:25;9.00;;;3.90;;
74670;SDS011;63196;39.564;2.628;2022-09-09T06:53:51;8.80;;;3.30;;
74670;SDS011;63196;39.564;2.628;2022-09-09T06:56:18;8.20;;;4.00;;
74670;SDS011;63196;39.564;2.628;2022-09-09T06:58:46;8.50;;;3.60;;
74670;SDS011;63196;39.564;2.628;2022-09-09T07:01:17;7.60;;;3.40;;
74670;SDS011;63196;39.564;2.628;2022-09-09T07:03:51;6.50;;;3.30;;
74670;SDS011;63196;39.564;2.628;2022-09-09T07:06:17;10.90;;;3.10;;
74670;SDS011;63196;39.564;2.628;2022-09-09T07:08:47;6.90;;;3.50;;
74670;SDS011;63196;39.564;2.628;2022-09-09T07:11:13;9.10;;;3.60;;
74670;SDS011;63196;39.564;2.628;2022-09-09T07:13:38;9.60;;;4.40;;
74670;SDS011;63196;39.564;2.628;2022-09-09T07:16:11;10.20;;;3.60;;
74670;SDS011;63196;39.564;2.628;2022-09-09T07:18:36;9.90;;;4.30;;
74670;SDS011;63196;39.564;2.628;2022-09-09T07:21:02;7.80;;;4.20;;
74670;SDS011;63196;39.564;2.628;2022-09-09T07:23:28;11.00;;;4.10;;
74670;SDS011;63196;39.564;2.628;2022-09-09T07:25:55;10.50;;;4.80;;
74670;SDS011;63196;39.564;2.628;2022-09-09T07:28:20;10.00;;;3.80;;
74670;SDS011;63196;39.564;2.628;2022-09-09T07:31:01;8.60;;;4.20;;
74670;SDS011;63196;39.564;2.628;2022-09-09T07:33:28;12.90;;;4.80;;
74670;SDS011;63196;39.564;2.628;2022-09-09T07:38:20;9.40;;;3.60;;
74670;SDS011;63196;39.564;2.628;2022-09-09T07:40:47;9.80;;;4.00;;
74670;SDS011;63196;39.564;2.628;2022-09-09T07:43:13;8.80;;;3.30;;
74670;SDS011;63196;39.564;2.628;2022-09-09T07:45:39;10.40;;;4.20;;
74670;SDS011;63196;39.564;2.628;2022-09-09T07:48:05;8.10;;;3.50;;
74670;SDS011;63196;39.564;2.628;2022-09-09T07:50:31;9.50;;;4.10;;
74670;SDS011;63196;39.564;2.628;2022-09-09T07:52:56;9.90;;;3.40;;
74670;SDS011;63196;39.564;2.628;2022-09-09T07:55:24;8.30;;;3.10;;
74670;SDS011;63196;39.564;2.628;2022-09-09T07:57:50;7.30;;;3.60;;
74670;SDS011;63196;39.564;2.628;2022-09-09T08:00:16;7.80;;;3.60;;
74670;SDS011;63196;39.564;2.628;2022-09-09T08:02:43;7.50;;;3.50;;
74670;SDS011;63196;39.564;2.628;2022-09-09T08:05:08;6.50;;;3.40;;
74670;SDS011;63196;39.564;2.628;2022-09-09T08:07:34;7.10;;;3.50;;
74670;SDS011;63196;39.564;2.628;2022-09-09T08:09:59;7.30;;;3.10;;
74670;SDS011;63196;39.564;2.628;2022-09-09T08:12:25;8.90;;;3.80;;
74670;SDS011;63196;39.564;2.628;2022-09-09T08:14:50;7.60;;;3.10;;
74670;SDS011;63196;39.564;2.628;2022-09-09T08:17:16;7.50;;;3.50;;
74670;SDS011;63196;39.564;2.628;2022-09-09T08:19:42;7.80;;;4.00;;
74670;SDS011;63196;39.564;2.628;2022-09-09T08:22:07;6.70;;;3.00;;
74670;SDS011;63196;39.564;2.628;2022-09-09T08:24:33;11.50;;;3.40;;
74670;SDS011;63196;39.564;2.628;2022-09-09T08:26:59;6.40;;;2.50;;
74670;SDS011;63196;39.564;2.628;2022-09-09T08:29:24;5.50;;;2.50;;
74670;SDS011;63196;39.564;2.628;2022-09-09T08:31:53;7.00;;;3.00;;
74670;SDS011;63196;39.564;2.628;2022-09-09T08:34:19;7.80;;;2.70;;
74670;SDS011;63196;39.564;2.628;2022-09-09T08:36:45;6.80;;;2.60;;
74670;SDS011;63196;39.564;2.628;2022-09-09T08:39:14;8.90;;;2.80;;
74670;SDS011;63196;39.564;2.628;2022-09-09T08:41:43;4.30;;;2.00;;
74670;SDS011;63196;39.564;2.628;2022-09-09T08:51:46;6.10;;;2.50;;
74670;SDS011;63196;39.564;2.628;2022-09-09T08:54:13;11.00;;;2.70;;
74670;SDS011;63196;39.564;2.628;2022-09-09T08:56:38;6.60;;;2.60;;
74670;SDS011;63196;39.564;2.628;2022-09-09T08:59:04;6.10;;;2.30;;
74670;SDS011;63196;39.564;2.628;2022-09-09T09:11:49;7.20;;;2.30;;
74670;SDS011;63196;39.564;2.628;2022-09-09T09:14:22;6.30;;;2.10;;
74670;SDS011;63196;39.564;2.628;2022-09-09T09:17:10;6.80;;;2.10;;
74670;SDS011;63196;39.564;2.628;2022-09-09T09:19:38;6.70;;;2.50;;
74670;SDS011;63196;39.564;2.628;2022-09-09T09:29:56;5.30;;;2.20;;
74670;SDS011;63196;39.564;2.628;2022-09-09T09:32:23;5.30;;;2.10;;
74670;SDS011;63196;39.564;2.628;2022-09-09T09:34:54;5.80;;;2.40;;
74670;SDS011;63196;39.564;2.628;2022-09-09T09:37:31;5.10;;;1.90;;
74670;SDS011;63196;39.564;2.628;2022-09-09T09:40:19;7.70;;;2.20;;
74670;SDS011;63196;39.564;2.628;2022-09-09T09:45:28;5.60;;;2.10;;
74670;SDS011;63196;39.564;2.628;2022-09-09T09:48:01;5.10;;;2.30;;
74670;SDS011;63196;39.564;2.628;2022-09-09T09:50:28;7.10;;;2.30;;
74670;SDS011;63196;39.564;2.628;2022-09-09T09:52:56;5.70;;;2.40;;
74670;SDS011;63196;39.564;2.628;2022-09-09T09:55:22;5.20;;;1.80;;
74670;SDS011;63196;39.564;2.628;2022-09-09T09:57:49;9.00;;;2.50;;
74670;SDS011;63196;39.564;2.628;2022-09-09T10:00:18;5.20;;;1.80;;
74670;SDS011;63196;39.564;2.628;2022-09-09T10:02:45;5.30;;;2.00;;
74670;SDS011;63196;39.564;2.628;2022-09-09T10:05:22;9.90;;;2.10;;
74670;SDS011;63196;39.564;2.628;2022-09-09T10:26:26;6.80;;;2.00;;
74670;SDS011;63196;39.564;2.628;2022-09-09T10:29:00;6.40;;;1.80;;
74670;SDS011;63196;39.564;2.628;2022-09-09T10:34:14;4.80;;;1.80;;
74670;SDS011;63196;39.564;2.628;2022-09-09T10:36:43;6.00;;;2.00;;
74670;SDS011;63196;39.564;2.628;2022-09-09T10:39:16;5.60;;;1.90;;
74670;SDS011;63196;39.564;2.628;2022-09-09T10:46:54;5.10;;;1.70;;
74670;SDS011;63196;39.564;2.628;2022-09-09T10:49:32;4.70;;;1.80;;
74670;SDS011;63196;39.564;2.628;2022-09-09T10:57:28;5.20;;;1.80;;
74670;SDS011;63196;39.564;2.628;2022-09-09T10:59:58;8.60;;;2.00;;
74670;SDS011;63196;39.564;2.628;2022-09-09T11:02:28;4.20;;;1.60;;
74670;SDS011;63196;39.564;2.628;2022-09-09T11:05:05;9.10;;;2.10;;
74670;SDS011;63196;39.564;2.628;2022-09-09T11:07:34;6.30;;;2.30;;
74670;SDS011;63196;39.564;2.628;2022-09-09T11:10:03;5.50;;;2.10;;
74670;SDS011;63196;39.564;2.628;2022-09-09T11:12:31;6.20;;;1.60;;
74670;SDS011;63196;39.564;2.628;2022-09-09T11:15:01;8.00;;;1.90;;
74670;SDS011;63196;39.564;2.628;2022-09-09T11:17:48;4.70;;;1.90;;
74670;SDS011;63196;39.564;2.628;2022-09-09T11:20:14;8.20;;;1.90;;
74670;SDS011;63196;39.564;2.628;2022-09-09T11:22:44;4.40;;;1.60;;
74670;SDS011;63196;39.564;2.628;2022-09-09T11:28:02;7.10;;;2.00;;
74670;SDS011;63196;39.564;2.628;2022-09-09T11:30:34;5.20;;;1.50;;
74670;SDS011;63196;39.564;2.628;2022-09-09T11:38:29;4.70;;;1.60;;
74670;SDS011;63196;39.564;2.628;2022-09-09T11:40:55;7.10;;;1.50;;
74670;SDS011;63196;39.564;2.628;2022-09-09T11:46:05;5.50;;;1.60;;
74670;SDS011;63196;39.564;2.628;2022-09-09T11:48:44;5.90;;;1.70;;
74670;SDS011;63196;39.564;2.628;2022-09-09T11:59:34;4.80;;;1.50;;
74670;SDS011;63196;39.564;2.628;2022-09-09T12:01:43;4.30;;;1.30;;
74670;SDS011;63196;39.564;2.628;2022-09-09T12:04:11;4.40;;;1.50;;
74670;SDS011;63196;39.564;2.628;2022-09-09T12:11:46;6.70;;;1.70;;
74670;SDS011;63196;39.564;2.628;2022-09-09T12:16:56;4.80;;;1.60;;
74670;SDS011;63196;39.564;2.628;2022-09-09T12:19:21;4.50;;;1.70;;
74670;SDS011;63196;39.564;2.628;2022-09-09T12:24:21;5.90;;;1.40;;
74670;SDS011;63196;39.564;2.628;2022-09-09T12:34:40;4.70;;;1.30;;
74670;SDS011;63196;39.564;2.628;2022-09-09T12:37:14;5.20;;;1.30;;
74670;SDS011;63196;39.564;2.628;2022-09-09T12:39:56;4.70;;;1.20;;
74670;SDS011;63196;39.564;2.628;2022-09-09T12:42:22;5.60;;;1.40;;
74670;SDS011;63196;39.564;2.628;2022-09-09T12:44:54;4.00;;;1.20;;
74670;SDS011;63196;39.564;2.628;2022-09-09T12:47:21;6.10;;;1.70;;
74670;SDS011;63196;39.564;2.628;2022-09-09T12:49:49;6.00;;;1.60;;
74670;SDS011;63196;39.564;2.628;2022-09-09T12:52:26;4.30;;;1.60;;
74670;SDS011;63196;39.564;2.628;2022-09-09T12:54:55;6.50;;;1.80;;
74670;SDS011;63196;39.564;2.628;2022-09-09T12:57:22;5.50;;;1.80;;
74670;SDS011;63196;39.564;2.628;2022-09-09T12:59:49;6.20;;;1.80;;
74670;SDS011;63196;39.564;2.628;2022-09-09T13:02:19;6.00;;;1.70;;
74670;SDS011;63196;39.564;2.628;2022-09-09T13:04:45;5.30;;;1.40;;
74670;SDS011;63196;39.564;2.628;2022-09-09T13:07:12;5.00;;;1.40;;
74670;SDS011;63196;39.564;2.628;2022-09-09T13:09:39;8.20;;;1.70;;
74670;SDS011;63196;39.564;2.628;2022-09-09T13:12:04;4.40;;;1.30;;
74670;SDS011;63196;39.564;2.628;2022-09-09T13:14:33;5.50;;;1.60;;
74670;SDS011;63196;39.564;2.628;2022-09-09T13:17:03;3.90;;;1.60;;
74670;SDS011;63196;39.564;2.628;2022-09-09T13:19:30;4.20;;;1.70;;
74670;SDS011;63196;39.564;2.628;2022-09-09T13:21:56;4.10;;;1.40;;
74670;SDS011;63196;39.564;2.628;2022-09-09T13:26:54;4.50;;;1.50;;
74670;SDS011;63196;39.564;2.628;2022-09-09T13:29:21;5.00;;;1.80;;
74670;SDS011;63196;39.564;2.628;2022-09-09T13:31:47;6.10;;;1.70;;
74670;SDS011;63196;39.564;2.628;2022-09-09T13:34:14;5.00;;;1.50;;
74670;SDS011;63196;39.564;2.628;2022-09-09T13:36:40;4.90;;;1.40;;
74670;SDS011;63196;39.564;2.628;2022-09-09T13:39:14;4.10;;;1.20;;
74670;SDS011;63196;39.564;2.628;2022-09-09T13:41:44;4.20;;;1.40;;
74670;SDS011;63196;39.564;2.628;2022-09-09T13:44:25;8.40;;;1.70;;
74670;SDS011;63196;39.564;2.628;2022-09-09T13:47:02;5.80;;;1.70;;
74670;SDS011;63196;39.564;2.628;2022-09-09T13:49:28;4.80;;;1.50;;
74670;SDS011;63196;39.564;2.628;2022-09-09T13:52:03;5.20;;;1.50;;
74670;SDS011;63196;39.564;2.628;2022-09-09T13:54:28;4.40;;;1.60;;
74670;SDS011;63196;39.564;2.628;2022-09-09T13:59:20;4.30;;;1.40;;
74670;SDS011;63196;39.564;2.628;2022-09-09T14:01:46;4.70;;;1.40;;
74670;SDS011;63196;39.564;2.628;2022-09-09T14:04:12;4.60;;;1.60;;
74670;SDS011;63196;39.564;2.628;2022-09-09T14:06:37;4.30;;;1.10;;
74670;SDS011;63196;39.564;2.628;2022-09-09T14:09:09;6.50;;;1.50;;
74670;SDS011;63196;39.564;2.628;2022-09-09T14:11:35;6.90;;;1.50;;
74670;SDS011;63196;39.564;2.628;2022-09-09T14:14:00;4.40;;;1.30;;
74670;SDS011;63196;39.564;2.628;2022-09-09T14:16:26;5.50;;;1.60;;
74670;SDS011;63196;39.564;2.628;2022-09-09T14:18:53;6.40;;;1.40;;
74670;SDS011;63196;39.564;2.628;2022-09-09T14:21:21;4.60;;;1.40;;
74670;SDS011;63196;39.564;2.628;2022-09-09T14:23:47;3.90;;;1.30;;
74670;SDS011;63196;39.564;2.628;2022-09-09T14:26:13;5.10;;;1.60;;
74670;SDS011;63196;39.564;2.628;2022-09-09T14:28:39;4.10;;;1.40;;
74670;SDS011;63196;39.564;2.628;2022-09-09T14:31:05;4.30;;;1.20;;
74670;SDS011;63196;39.564;2.628;2022-09-09T14:33:31;4.50;;;1.80;;
74670;SDS011;63196;39.564;2.628;2022-09-09T14:35:57;5.40;;;1.40;;
74670;SDS011;63196;39.564;2.628;2022-09-09T14:38:22;5.10;;;1.30;;
74670;SDS011;63196;39.564;2.628;2022-09-09T14:40:48;6.10;;;2.00;;
74670;SDS011;63196;39.564;2.628;2022-09-09T14:43:13;5.30;;;1.50;;
74670;SDS011;63196;39.564;2.628;2022-09-09T14:45:39;5.80;;;1.90;;
74670;SDS011;63196;39.564;2.628;2022-09-09T14:48:04;5.00;;;1.60;;
74670;SDS011;63196;39.564;2.628;2022-09-09T14:50:30;4.20;;;1.70;;
74670;SDS011;63196;39.564;2.628;2022-09-09T14:52:55;4.70;;;1.50;;
74670;SDS011;63196;39.564;2.628;2022-09-09T14:55:20;5.00;;;1.20;;
74670;SDS011;63196;39.564;2.628;2022-09-09T14:57:46;4.70;;;1.50;;
74670;SDS011;63196;39.564;2.628;2022-09-09T15:00:11;7.90;;;1.50;;
74670;SDS011;63196;39.564;2.628;2022-09-09T15:02:38;5.00;;;1.30;;
74670;SDS011;63196;39.564;2.628;2022-09-09T15:05:05;6.80;;;1.70;;
74670;SDS011;63196;39.564;2.628;2022-09-09T15:07:30;4.90;;;1.50;;
74670;SDS011;63196;39.564;2.628;2022-09-09T15:09:57;3.70;;;1.40;;
74670;SDS011;63196;39.564;2.628;2022-09-09T15:12:23;7.70;;;1.50;;
74670;SDS011;63196;39.564;2.628;2022-09-09T15:14:48;7.40;;;1.50;;
74670;SDS011;63196;39.564;2.628;2022-09-09T15:17:15;4.80;;;1.50;;
74670;SDS011;63196;39.564;2.628;2022-09-09T15:19:41;3.50;;;1.20;;
74670;SDS011;63196;39.564;2.628;2022-09-09T15:22:07;4.90;;;1.90;;
74670;SDS011;63196;39.564;2.628;2022-09-09T15:24:33;4.80;;;1.40;;
74670;SDS011;63196;39.564;2.628;2022-09-09T15:26:59;4.60;;;1.20;;
74670;SDS011;63196;39.564;2.628;2022-09-09T15:29:25;6.10;;;1.50;;
74670;SDS011;63196;39.564;2.628;2022-09-09T15:31:50;5.20;;;1.90;;
74670;SDS011;63196;39.564;2.628;2022-09-09T15:34:16;4.70;;;1.70;;
74670;SDS011;63196;39.564;2.628;2022-09-09T15:36:43;4.10;;;1.30;;
74670;SDS011;63196;39.564;2.628;2022-09-09T15:39:10;6.10;;;1.60;;
74670;SDS011;63196;39.564;2.628;2022-09-09T15:41:41;5.10;;;1.50;;
74670;SDS011;63196;39.564;2.628;2022-09-09T15:44:06;4.30;;;1.40;;
74670;SDS011;63196;39.564;2.628;2022-09-09T15:46:36;5.20;;;1.50;;
74670;SDS011;63196;39.564;2.628;2022-09-09T15:49:03;5.20;;;1.90;;
74670;SDS011;63196;39.564;2.628;2022-09-09T15:51:29;5.20;;;1.70;;
74670;SDS011;63196;39.564;2.628;2022-09-09T15:53:56;4.90;;;2.10;;
74670;SDS011;63196;39.564;2.628;2022-09-09T15:56:22;5.80;;;1.70;;
74670;SDS011;63196;39.564;2.628;2022-09-09T15:58:48;5.50;;;1.90;;
74670;SDS011;63196;39.564;2.628;2022-09-09T16:01:13;4.40;;;2.00;;
74670;SDS011;63196;39.564;2.628;2022-09-09T16:03:40;5.10;;;2.00;;
74670;SDS011;63196;39.564;2.628;2022-09-09T16:06:07;5.30;;;1.90;;
74670;SDS011;63196;39.564;2.628;2022-09-09T16:08:37;5.40;;;1.60;;
74670;SDS011;63196;39.564;2.628;2022-09-09T16:11:04;6.10;;;1.60;;
74670;SDS011;63196;39.564;2.628;2022-09-09T16:13:34;5.20;;;1.90;;
74670;SDS011;63196;39.564;2.628;2022-09-09T16:15:59;7.90;;;2.10;;
74670;SDS011;63196;39.564;2.628;2022-09-09T16:18:25;6.00;;;2.20;;
74670;SDS011;63196;39.564;2.628;2022-09-09T16:20:54;6.30;;;3.00;;
74670;SDS011;63196;39.564;2.628;2022-09-09T16:23:20;5.80;;;1.80;;
74670;SDS011;63196;39.564;2.628;2022-09-09T16:25:53;7.70;;;2.20;;
74670;SDS011;63196;39.564;2.628;2022-09-09T16:28:18;5.70;;;2.00;;
74670;SDS011;63196;39.564;2.628;2022-09-09T16:30:43;5.60;;;2.10;;
74670;SDS011;63196;39.564;2.628;2022-09-09T16:33:09;5.20;;;2.00;;
74670;SDS011;63196;39.564;2.628;2022-09-09T16:35:38;7.10;;;2.30;;
74670;SDS011;63196;39.564;2.628;2022-09-09T16:38:04;7.30;;;2.30;;
74670;SDS011;63196;39.564;2.628;2022-09-09T16:40:29;8.10;;;3.00;;
74670;SDS011;63196;39.564;2.628;2022-09-09T16:42:55;5.60;;;2.30;;
74670;SDS011;63196;39.564;2.628;2022-09-09T16:45:20;6.10;;;1.90;;
74670;SDS011;63196;39.564;2.628;2022-09-09T16:47:47;7.70;;;2.30;;
74670;SDS011;63196;39.564;2.628;2022-09-09T16:50:13;6.90;;;2.10;;
74670;SDS011;63196;39.564;2.628;2022-09-09T16:52:39;6.10;;;1.60;;
74670;SDS011;63196;39.564;2.628;2022-09-09T16:55:05;6.90;;;1.80;;
74670;SDS011;63196;39.564;2.628;2022-09-09T16:57:31;7.80;;;2.40;;
74670;SDS011;63196;39.564;2.628;2022-09-09T16:59:56;6.70;;;1.80;;
74670;SDS011;63196;39.564;2.628;2022-09-09T17:02:24;4.70;;;1.40;;
74670;SDS011;63196;39.564;2.628;2022-09-09T17:04:50;4.20;;;1.40;;
74670;SDS011;63196;39.564;2.628;2022-09-09T17:07:15;5.70;;;1.90;;
74670;SDS011;63196;39.564;2.628;2022-09-09T17:09:41;4.50;;;1.70;;
74670;SDS011;63196;39.564;2.628;2022-09-09T17:12:07;7.30;;;2.00;;
74670;SDS011;63196;39.564;2.628;2022-09-09T17:14:33;4.80;;;1.60;;
74670;SDS011;63196;39.564;2.628;2022-09-09T17:16:59;5.80;;;1.60;;
74670;SDS011;63196;39.564;2.628;2022-09-09T17:19:26;6.80;;;1.90;;
74670;SDS011;63196;39.564;2.628;2022-09-09T17:21:51;6.60;;;2.00;;